MMCL/CUL METAR and TAF weather

Enter ICAO airport designator
Station Type Date Time Source
MMCL METAR 2022/12/10 01:40 UTC NOAA

MMCL 100140Z 27004KT 10SM SCT230 22/14 A2989 RMK 8/002 HZY


Station Type Date Time Source
MMCL Decoded METAR 2022/12/10 01:40 UTC NOAA

Culiacan, Sin., Mexico (MMCL) 24-49N 107-24W
Dec 09, 2022 - 08:40 PM EST / 2022.12.10 0140 UTC
Wind: from the W (270 degrees) at 5 MPH (4 KT):0
Visibility: 10 mile(s):0
Sky conditions: partly cloudy
Temperature: 71 F (22 C)
Dew Point: 57 F (14 C)
Relative Humidity: 60%
Pressure (altimeter): 29.89 in. Hg (1012 hPa)
ob: MMCL 100140Z 27004KT 10SM SCT230 22/14 A2989 RMK 8/002 HZY
cycle: 1

Station Type Date Time Source
MMCL TAF 2022/12/09 18:58 UTC NOAA

TAF MMCL 091651Z 0918/1018 28010KT P6SM SCT040 BKN250
BECMG 1003/1004 02005KT
FM101700 29010KT P6SM SCT020

Example: see airport list